Time;durP1;ratioP1;P1;durP2;ratioP2;P2;SDS_P1;SDS_P2;PMS_P1;PMS_P2;Temp;Humidity;BMP_temperature;BMP_pressure;BME280_temperature;BME280_humidity;BME280_pressure;Samples;Min_cycle;Max_cycle;Signal;HPM_P1;HPM_P2
2022/06/05 00:02:05;;;;;;;8.60;7.03;;;;;;;20.15;60.28;101590.38;5235705;28;20049;-70
2022/06/05 00:04:53;;;;;;;9.88;6.50;;;;;;;20.13;60.22;101594.22;5235372;28;20108;-70
2022/06/05 00:07:36;;;;;;;9.25;6.72;;;;;;;20.13;60.63;101580.91;5243271;28;20049;-70
2022/06/05 00:10:30;;;;;;;8.52;5.93;;;;;;;20.20;60.51;101579.22;5247500;28;20049;-70
2022/06/05 00:13:12;;;;;;;6.93;5.28;;;;;;;20.15;60.33;101558.44;5232319;28;20026;-69
2022/06/05 00:15:43;;;;;;;9.38;5.55;;;;;;;20.05;60.92;101565.00;5240926;28;20435;-70
2022/06/05 00:18:15;;;;;;;7.87;5.13;;;;;;;19.93;61.31;101562.72;5235294;28;20073;-70
2022/06/05 00:20:47;;;;;;;7.60;5.83;;;;;;;19.89;61.61;101566.72;5240432;28;20025;-71
2022/06/05 00:23:18;;;;;;;8.13;5.30;;;;;;;19.92;61.49;101571.69;5239880;28;20032;-70
2022/06/05 00:25:59;;;;;;;9.47;5.53;;;;;;;19.90;61.37;101556.91;5238202;28;20515;-70
2022/06/05 00:29:08;;;;;;;6.55;5.22;;;;;;;19.96;61.26;101553.56;5237865;28;20079;-70
2022/06/05 00:32:07;;;;;;;7.90;5.40;;;;;;;19.84;61.47;101554.94;5246382;28;20061;-70
2022/06/05 00:34:38;;;;;;;6.63;5.78;;;;;;;19.65;62.58;101541.06;5236970;28;20029;-70
2022/06/05 00:37:31;;;;;;;6.93;5.27;;;;;;;19.65;62.72;101540.25;5236291;28;20506;-69
2022/06/05 00:40:27;;;;;;;7.57;5.72;;;;;;;19.71;62.64;101536.91;5236007;28;20033;-71
2022/06/05 00:43:02;;;;;;;6.72;5.53;;;;;;;19.57;63.51;101540.25;5241313;28;20024;-70
2022/06/05 00:45:35;;;;;;;7.15;5.32;;;;;;;19.58;63.42;101534.75;5245844;28;20376;-71
2022/06/05 00:48:09;;;;;;;6.47;5.20;;;;;;;19.60;63.72;101537.25;5240835;28;20495;-69
2022/06/05 00:50:42;;;;;;;5.50;5.00;;;;;;;19.52;63.90;101532.78;5240802;28;20044;-70
2022/06/05 00:53:14;;;;;;;6.18;5.03;;;;;;;19.51;63.42;101525.84;5247300;28;20017;-69
2022/06/05 00:55:51;;;;;;;8.07;5.07;;;;;;;19.60;63.58;101537.25;5246785;28;20044;-70
2022/06/05 00:58:26;;;;;;;6.13;5.45;;;;;;;19.54;63.44;101524.63;5244460;28;20085;-70
2022/06/05 01:00:57;;;;;;;6.15;5.55;;;;;;;19.43;63.75;101526.69;5240721;28;20017;-70
2022/06/05 01:03:30;;;;;;;7.27;5.63;;;;;;;19.43;63.70;101528.50;5249794;28;20043;-69
2022/06/05 01:06:01;;;;;;;6.85;5.40;;;;;;;19.46;63.41;101536.13;5239080;28;20718;-70
2022/06/05 01:08:32;;;;;;;5.47;4.60;;;;;;;19.46;63.47;101538.78;5236574;28;20045;-70
2022/06/05 01:11:22;;;;;;;5.78;5.18;;;;;;;19.46;63.54;101530.81;5263069;28;20036;-68
2022/06/05 01:14:03;;;;;;;6.53;4.88;;;;;;;19.47;63.97;101531.63;5268096;28;20419;-68
2022/06/05 01:16:52;;;;;;;6.22;4.63;;;;;;;19.60;63.10;101545.22;5262745;28;20024;-68
2022/06/05 01:19:49;;;;;;;6.43;4.25;;;;;;;19.59;63.56;101568.31;5261319;28;20070;-68
2022/06/05 01:22:58;;;;;;;5.68;4.72;;;;;;;19.68;63.31;101623.13;5265173;28;20032;-68
2022/06/05 01:25:54;;;;;;;5.47;4.50;;;;;;;19.74;63.47;101567.66;5268906;28;20065;-68
2022/06/05 01:28:34;;;;;;;5.65;5.05;;;;;;;19.64;64.12;101586.44;5267402;28;20104;-68
2022/06/05 01:31:13;;;;;;;5.35;4.80;;;;;;;19.62;65.74;101617.66;5266096;28;20025;-69
2022/06/05 01:33:56;;;;;;;8.65;5.18;;;;;;;19.65;66.89;101583.59;5262926;28;20033;-69
2022/06/05 01:36:36;;;;;;;10.13;4.93;;;;;;;19.59;70.67;101520.47;5262212;28;20028;-68
2022/06/05 01:39:16;;;;;;;5.45;4.78;;;;;;;19.67;68.74;101548.88;5255717;28;20545;-69
2022/06/05 01:42:02;;;;;;;6.38;4.82;;;;;;;19.73;69.74;101580.09;5261063;28;20040;-69
2022/06/05 01:44:42;;;;;;;7.40;5.05;;;;;;;19.65;71.08;101562.34;5267610;28;20028;-69
2022/06/05 01:47:33;;;;;;;5.72;5.13;;;;;;;19.78;71.32;101545.03;5266635;28;20067;-69
2022/06/05 01:50:12;;;;;;;8.05;5.20;;;;;;;19.68;71.98;101542.56;5261845;28;20032;-69
2022/06/05 01:52:47;;;;;;;6.28;5.03;;;;;;;19.64;71.24;101538.59;5264935;28;20037;-69
2022/06/05 01:55:25;;;;;;;5.47;4.55;;;;;;;19.59;73.03;101533.78;5266408;28;20592;-69
2022/06/05 01:58:00;;;;;;;5.72;4.50;;;;;;;19.54;72.26;101529.97;5265658;28;20040;-69
2022/06/05 02:00:32;;;;;;;7.07;4.40;;;;;;;19.50;71.60;101510.88;5259653;28;20045;-69
2022/06/05 02:03:07;;;;;;;8.50;4.60;;;;;;;19.62;70.61;101506.88;5260809;28;20052;-69
2022/06/05 02:05:45;;;;;;;7.50;4.70;;;;;;;19.56;70.20;101509.38;5261076;28;20017;-69
2022/06/05 02:08:25;;;;;;;5.82;4.90;;;;;;;19.55;69.05;101508.53;5266121;28;20038;-69
2022/06/05 02:11:08;;;;;;;7.63;4.93;;;;;;;19.60;69.14;101497.38;5239288;28;20107;-69
2022/06/05 02:13:39;;;;;;;6.95;5.32;;;;;;;19.43;72.36;101481.53;5236134;28;20033;-69
2022/06/05 02:16:11;;;;;;;7.93;5.68;;;;;;;19.34;73.48;101468.41;5235819;28;20017;-69
2022/06/05 02:18:43;;;;;;;8.10;5.80;;;;;;;19.27;74.51;101460.31;5235584;28;20033;-69
2022/06/05 02:21:14;;;;;;;12.13;5.90;;;;;;;19.18;75.56;101451.53;5234771;28;20029;-68
2022/06/05 02:23:46;;;;;;;7.20;5.60;;;;;;;19.16;73.84;101440.25;5234544;28;20080;-69
2022/06/05 02:26:17;;;;;;;6.20;5.60;;;;;;;19.11;73.81;101441.78;5234982;28;20135;-69
2022/06/05 02:28:48;;;;;;;6.57;5.97;;;;;;;19.08;73.23;101420.88;5234477;28;20033;-68
2022/06/05 02:31:30;;;;;;;7.18;5.72;;;;;;;19.17;72.36;101414.53;5235725;28;20104;-69
2022/06/05 02:34:08;;;;;;;6.82;5.85;;;;;;;18.96;77.77;101418.59;5216941;28;20468;-68
2022/06/05 02:37:18;;;;;;;9.32;6.80;;;;;;;19.12;77.98;101412.38;5235488;28;20036;-68
2022/06/05 02:40:26;;;;;;;8.02;6.68;;;;;;;18.95;80.85;101405.50;5220190;28;20041;-68
2022/06/05 02:43:14;;;;;;;7.18;6.47;;;;;;;18.64;83.99;101392.13;5235423;28;20030;-68
2022/06/05 02:46:15;;;;;;;7.30;6.40;;;;;;;18.68;82.96;101375.69;5234641;28;20127;-68
2022/06/05 02:48:57;;;;;;;9.35;6.50;;;;;;;18.42;86.23;101359.97;5232555;28;20041;-68
2022/06/05 02:51:34;;;;;;;7.23;6.33;;;;;;;18.24;88.48;101360.16;5234947;28;20025;-67
2022/06/05 02:54:05;;;;;;;9.68;7.18;;;;;;;18.12;88.01;101353.56;5234248;28;20040;-68
2022/06/05 02:56:36;;;;;;;9.20;7.33;;;;;;;18.05;90.16;101355.22;5233393;28;20476;-68
2022/06/05 02:59:07;;;;;;;7.65;6.57;;;;;;;17.99;87.85;101354.06;5235278;28;20018;-67
2022/06/05 03:04:28;;;;;;;8.60;6.72;;;;;;;17.95;87.39;101363.31;5235012;28;20061;-68
2022/06/05 03:07:00;;;;;;;7.33;6.63;;;;;;;17.93;88.72;101356.56;5234203;28;20441;-68
2022/06/05 03:09:31;;;;;;;7.05;6.13;;;;;;;17.94;86.04;101351.06;5216435;28;20052;-68
2022/06/05 03:12:03;;;;;;;7.00;6.38;;;;;;;17.94;84.62;101352.91;5231605;28;20041;-67
2022/06/05 03:14:34;;;;;;;7.45;6.68;;;;;;;17.92;83.98;101350.44;5232151;28;20451;-68
2022/06/05 03:17:05;;;;;;;8.05;7.25;;;;;;;17.93;86.05;101352.06;5234604;28;20024;-67
2022/06/05 03:19:37;;;;;;;8.30;7.20;;;;;;;17.95;85.90;101365.16;5234036;28;20459;-68
2022/06/05 03:22:08;;;;;;;8.00;7.15;;;;;;;17.90;86.47;101357.69;5231107;28;20669;-68
2022/06/05 03:24:39;;;;;;;7.65;6.85;;;;;;;17.92;84.21;101370.81;5231988;28;20076;-68
2022/06/05 03:27:11;;;;;;;7.43;6.68;;;;;;;17.91;85.52;101375.25;5233988;28;20021;-67
2022/06/05 03:29:42;;;;;;;7.82;7.03;;;;;;;17.90;87.68;101370.94;5232769;28;20037;-68
2022/06/05 03:32:14;;;;;;;7.80;7.00;;;;;;;17.90;86.26;101370.13;5233665;28;20026;-68
2022/06/05 03:34:45;;;;;;;7.47;6.72;;;;;;;17.88;83.19;101380.91;5233870;28;20025;-67
2022/06/05 03:37:16;;;;;;;7.85;6.95;;;;;;;17.87;84.32;101375.75;5233158;28;20021;-68
2022/06/05 03:39:48;;;;;;;7.75;6.88;;;;;;;17.81;86.62;101373.78;5234339;28;20035;-68
2022/06/05 03:42:19;;;;;;;10.68;6.63;;;;;;;17.83;86.94;101387.69;5234775;28;20022;-68
2022/06/05 03:44:51;;;;;;;7.30;6.50;;;;;;;17.75;82.81;101365.47;5232201;28;20018;-68
2022/06/05 03:47:22;;;;;;;7.72;6.65;;;;;;;17.79;85.07;101359.84;5232984;28;20040;-68
2022/06/05 03:49:53;;;;;;;8.73;7.25;;;;;;;17.80;87.01;101364.97;5211564;28;20061;-68
2022/06/05 03:52:24;;;;;;;8.13;7.28;;;;;;;17.75;85.96;101365.47;5227951;28;20438;-68
2022/06/05 03:54:56;;;;;;;10.52;6.85;;;;;;;17.66;83.48;101371.75;5225239;28;20097;-68
2022/06/05 03:57:27;;;;;;;8.52;6.82;;;;;;;17.70;83.45;101370.41;5229174;28;20048;-68
2022/06/05 03:59:58;;;;;;;8.55;6.80;;;;;;;17.64;82.56;101372.88;5229442;28;20022;-68
2022/06/05 04:02:31;;;;;;;8.10;6.65;;;;;;;17.61;81.30;101368.72;5198432;28;20084;-67
2022/06/05 04:05:05;;;;;;;9.88;6.88;;;;;;;17.52;80.76;101367.91;5231571;28;20126;-67
2022/06/05 04:07:36;;;;;;;7.57;6.88;;;;;;;17.56;82.84;101376.34;5231255;28;20029;-67
2022/06/05 04:10:11;;;;;;;8.10;7.25;;;;;;;17.63;83.46;101377.34;5239119;28;20037;-67
2022/06/05 04:12:44;;;;;;;7.95;7.15;;;;;;;17.54;79.73;101369.53;5255717;28;20087;-67
2022/06/05 04:15:15;;;;;;;8.13;6.97;;;;;;;17.51;81.16;101365.41;5261566;28;20033;-67
2022/06/05 04:17:47;;;;;;;8.73;7.28;;;;;;;17.55;81.44;101356.16;5260577;28;20047;-67
2022/06/05 04:20:18;;;;;;;8.88;6.70;;;;;;;17.57;81.12;101351.50;5267881;28;20013;-67
2022/06/05 04:22:49;;;;;;;7.60;6.22;;;;;;;17.55;82.05;101353.50;5264667;28;20396;-67
2022/06/05 04:25:21;;;;;;;7.82;6.85;;;;;;;17.58;81.05;101358.47;5269242;28;20471;-70
2022/06/05 04:27:52;;;;;;;7.07;6.38;;;;;;;17.54;80.23;101351.00;5265823;28;20441;-67
2022/06/05 04:30:26;;;;;;;9.70;6.57;;;;;;;17.57;81.01;101356.81;5266774;28;20032;-67
2022/06/05 04:32:59;;;;;;;8.00;6.97;;;;;;;17.54;81.43;101349.22;5266015;28;20039;-68
2022/06/05 04:35:30;;;;;;;9.88;7.18;;;;;;;17.55;81.69;101350.03;5262503;28;20029;-68
2022/06/05 04:38:01;;;;;;;9.18;7.07;;;;;;;17.57;83.43;101350.69;5266917;28;20086;-67
2022/06/05 04:40:33;;;;;;;8.90;6.32;;;;;;;17.59;83.08;101346.88;5265096;28;20041;-67
2022/06/05 04:43:06;;;;;;;9.70;7.00;;;;;;;17.52;82.59;101351.19;5264391;28;20474;-67
2022/06/05 04:45:37;;;;;;;9.68;6.78;;;;;;;17.51;82.22;101352.19;5264082;28;20036;-67
2022/06/05 04:48:10;;;;;;;7.28;6.38;;;;;;;17.50;82.37;101343.41;5266597;28;20089;-69
2022/06/05 04:50:41;;;;;;;7.72;6.70;;;;;;;17.44;81.99;101332.63;5268751;28;21021;-68
2022/06/05 04:53:12;;;;;;;7.40;6.70;;;;;;;17.47;81.70;101337.59;5264743;28;20033;-68
2022/06/05 04:55:43;;;;;;;10.40;6.43;;;;;;;17.48;82.42;101342.72;5266508;28;20063;-68
2022/06/05 04:58:15;;;;;;;7.97;6.50;;;;;;;17.50;81.48;101343.41;5265200;28;20016;-69
2022/06/05 05:00:46;;;;;;;8.52;7.32;;;;;;;17.39;82.18;101334.94;5266475;28;20045;-68
2022/06/05 05:03:17;;;;;;;8.02;7.22;;;;;;;17.44;81.81;101343.22;5262270;28;20036;-69
2022/06/05 05:05:49;;;;;;;8.20;7.38;;;;;;;17.44;80.08;101340.56;5260662;28;20505;-69
2022/06/05 05:08:20;;;;;;;9.05;6.90;;;;;;;17.44;80.46;101346.69;5263645;28;20548;-69
2022/06/05 05:10:52;;;;;;;8.55;7.18;;;;;;;17.45;80.43;101352.81;5265606;28;20127;-68
2022/06/05 05:13:23;;;;;;;9.55;7.10;;;;;;;17.47;81.11;101356.16;5261725;28;20041;-68
2022/06/05 05:15:57;;;;;;;9.73;6.57;;;;;;;17.49;81.88;101354.97;5263284;28;20116;-68
2022/06/05 05:18:28;;;;;;;8.75;7.82;;;;;;;17.40;81.98;101348.00;5255324;28;20116;-68
2022/06/05 05:21:13;;;;;;;9.10;7.28;;;;;;;17.50;80.52;101346.06;5248074;28;20107;-68
2022/06/05 05:23:46;;;;;;;7.55;6.78;;;;;;;17.46;81.63;101351.81;5252583;28;20067;-68
2022/06/05 05:26:21;;;;;;;7.82;7.03;;;;;;;17.49;82.00;101348.84;5251445;28;20033;-68
2022/06/05 05:28:53;;;;;;;9.45;7.05;;;;;;;17.47;82.55;101359.63;5253824;28;20420;-68
2022/06/05 05:31:31;;;;;;;7.65;6.70;;;;;;;17.56;81.21;101360.44;5255055;28;20037;-68
2022/06/05 05:34:04;;;;;;;8.63;6.82;;;;;;;17.51;80.75;101360.13;5261360;28;20056;-68
2022/06/05 05:36:36;;;;;;;7.85;6.90;;;;;;;17.56;81.97;101354.34;5261622;28;20033;-68
2022/06/05 05:42:04;;;;;;;8.95;6.78;;;;;;;17.56;81.40;101356.97;5260562;28;20452;-68
2022/06/05 05:44:40;;;;;;;8.70;6.22;;;;;;;17.58;80.69;101361.13;5262261;28;20119;-68
2022/06/05 05:47:15;;;;;;;9.43;7.32;;;;;;;17.62;81.74;101354.50;5260199;28;20044;-68
2022/06/05 05:49:52;;;;;;;8.43;6.90;;;;;;;17.66;79.95;101349.72;5260227;28;20447;-68
2022/06/05 05:52:24;;;;;;;9.93;7.22;;;;;;;17.64;82.63;101349.03;5268402;28;20071;-68
2022/06/05 05:54:55;;;;;;;8.55;6.85;;;;;;;17.65;80.31;101351.53;5269207;28;20029;-69
2022/06/05 05:57:27;;;;;;;8.93;6.53;;;;;;;17.68;81.34;101337.13;5262194;28;20636;-68
2022/06/05 05:59:59;;;;;;;8.00;7.00;;;;;;;17.67;80.15;101331.00;5243756;28;20029;-69
2022/06/05 06:02:30;;;;;;;9.32;6.82;;;;;;;17.70;79.68;101329.84;5259234;28;20052;-69
2022/06/05 06:05:03;;;;;;;10.27;6.65;;;;;;;17.80;82.12;101329.69;5264358;28;20048;-69
2022/06/05 06:07:35;;;;;;;7.47;6.30;;;;;;;17.81;81.02;101320.78;5261957;28;20037;-69
2022/06/05 06:10:07;;;;;;;8.55;6.85;;;;;;;17.79;81.11;101317.44;5265980;28;20114;-69
2022/06/05 06:12:39;;;;;;;7.93;6.88;;;;;;;17.86;80.07;101313.97;5263279;28;20029;-69
2022/06/05 06:15:11;;;;;;;8.70;6.83;;;;;;;17.92;80.79;101312.50;5262560;28;20199;-69
2022/06/05 06:17:42;;;;;;;8.07;6.97;;;;;;;17.95;80.96;101298.88;5261386;28;20041;-69
2022/06/05 06:20:13;;;;;;;8.10;7.13;;;;;;;18.05;81.56;101301.38;5266781;28;20437;-69
2022/06/05 06:22:45;;;;;;;10.32;6.45;;;;;;;18.06;80.34;101295.06;5261309;28;20674;-69
2022/06/05 06:25:16;;;;;;;7.45;6.72;;;;;;;18.14;79.71;101297.69;5265613;28;20017;-69
2022/06/05 06:27:47;;;;;;;8.20;6.90;;;;;;;18.18;82.06;101289.25;5263380;28;20024;-69
2022/06/05 06:30:19;;;;;;;7.88;7.07;;;;;;;18.20;80.26;101284.59;5262334;28;20028;-69
2022/06/05 06:32:50;;;;;;;9.48;6.68;;;;;;;18.29;78.40;101276.59;5256783;28;20083;-69
2022/06/05 06:35:21;;;;;;;8.10;7.30;;;;;;;18.34;79.25;101274.28;5267924;28;20021;-69
2022/06/05 06:37:55;;;;;;;7.85;6.82;;;;;;;18.46;78.80;101270.25;5255789;28;20030;-69
2022/06/05 06:40:27;;;;;;;8.15;6.63;;;;;;;18.49;78.68;101267.28;5256361;28;20025;-69
2022/06/05 06:42:58;;;;;;;7.33;6.43;;;;;;;18.56;77.51;101262.94;5262641;28;20036;-69
2022/06/05 06:45:29;;;;;;;9.90;7.60;;;;;;;18.60;78.18;101250.97;5262259;28;20009;-69
2022/06/05 06:48:01;;;;;;;8.93;7.88;;;;;;;18.66;78.82;101246.78;5260553;28;20035;-69
2022/06/05 06:50:36;;;;;;;9.73;7.32;;;;;;;18.77;78.65;101235.81;5259938;28;20051;-69
2022/06/05 06:53:08;;;;;;;8.40;7.50;;;;;;;18.71;76.30;101241.81;5266375;28;20051;-69
2022/06/05 06:55:39;;;;;;;11.57;7.37;;;;;;;18.82;76.80;101237.94;5259714;28;20071;-69
2022/06/05 06:58:10;;;;;;;8.20;7.40;;;;;;;18.85;77.06;101272.13;5262487;28;20029;-69
2022/06/05 07:00:42;;;;;;;8.52;6.78;;;;;;;18.90;76.64;101254.69;5244846;28;20048;-69
2022/06/05 07:03:13;;;;;;;9.93;7.40;;;;;;;18.93;76.49;101258.78;5247663;28;20111;-69
2022/06/05 07:05:45;;;;;;;8.57;7.05;;;;;;;19.13;76.90;101251.19;5262562;28;20479;-69
2022/06/05 07:08:16;;;;;;;8.68;7.78;;;;;;;19.17;75.43;101248.03;5242943;28;20032;-69
2022/06/05 07:10:47;;;;;;;8.75;7.25;;;;;;;19.37;77.41;101247.56;5250261;23;20053;-68
2022/06/05 07:13:19;;;;;;;7.73;6.90;;;;;;;19.35;74.62;101231.78;5219490;28;20041;-69
2022/06/05 07:15:51;;;;;;;7.47;6.78;;;;;;;19.54;74.57;101232.28;5218075;28;20091;-68
2022/06/05 07:18:22;;;;;;;7.70;6.87;;;;;;;19.59;73.78;101238.75;5226764;28;20083;-68
2022/06/05 07:20:53;;;;;;;8.05;7.28;;;;;;;19.70;72.76;101237.50;5219138;28;20033;-68
2022/06/05 07:23:25;;;;;;;8.35;7.30;;;;;;;19.81;73.48;101242.41;5228240;28;20025;-69
2022/06/05 07:25:56;;;;;;;7.97;7.27;;;;;;;19.88;72.49;101226.50;5230384;28;20022;-68
2022/06/05 07:28:27;;;;;;;9.10;6.70;;;;;;;20.06;73.38;101227.00;5228516;28;20037;-67
2022/06/05 07:31:01;;;;;;;9.83;6.30;;;;;;;20.29;74.34;101221.56;5230269;28;20032;-68
2022/06/05 07:33:34;;;;;;;9.00;6.93;;;;;;;20.36;71.92;101224.31;5227243;28;20029;-68
2022/06/05 07:36:08;;;;;;;9.13;7.32;;;;;;;20.36;70.78;101213.69;5227814;28;20025;-68
2022/06/05 07:38:39;;;;;;;10.02;6.97;;;;;;;20.39;71.77;101215.97;5227248;28;20029;-68
2022/06/05 07:41:24;;;;;;;9.53;7.00;;;;;;;20.53;71.04;101217.84;5227920;28;20041;-68
2022/06/05 07:43:55;;;;;;;7.45;6.75;;;;;;;20.54;71.29;101213.34;5230450;28;20024;-69
2022/06/05 07:46:28;;;;;;;7.57;6.87;;;;;;;20.64;71.41;101214.66;5230646;28;20021;-68
2022/06/05 07:48:59;;;;;;;7.22;6.63;;;;;;;20.75;72.33;101205.38;5225619;28;20435;-68
2022/06/05 07:54:30;;;;;;;8.00;7.10;;;;;;;20.81;69.50;101209.94;5231962;28;20348;-69
2022/06/05 07:57:06;;;;;;;10.13;7.40;;;;;;;20.84;70.38;101196.25;5224221;28;20029;-69
2022/06/05 07:59:40;;;;;;;7.53;6.80;;;;;;;20.99;69.60;101198.88;5226505;28;20044;-68
2022/06/05 08:02:14;;;;;;;7.78;6.90;;;;;;;21.01;69.38;101199.50;5205318;28;20025;-68
2022/06/05 08:04:47;;;;;;;7.78;6.63;;;;;;;21.03;67.82;101186.81;5228211;28;20017;-69
2022/06/05 08:07:25;;;;;;;8.10;7.15;;;;;;;21.15;67.98;101181.81;5224711;28;20026;-68
2022/06/05 08:09:57;;;;;;;7.70;7.00;;;;;;;21.33;69.28;101192.88;5216369;28;20081;-68
2022/06/05 08:12:30;;;;;;;8.23;6.83;;;;;;;21.42;67.78;101180.22;5227559;28;20071;-68
2022/06/05 08:15:08;;;;;;;7.70;6.97;;;;;;;21.66;70.16;101189.59;5227153;28;20363;-68
2022/06/05 08:17:40;;;;;;;7.47;6.65;;;;;;;21.77;67.72;101178.41;5226649;28;20033;-68
2022/06/05 08:20:13;;;;;;;7.57;6.87;;;;;;;21.83;65.49;101177.63;5228143;28;20033;-68
2022/06/05 08:22:44;;;;;;;8.80;8.00;;;;;;;21.94;66.31;101176.25;5225473;28;20053;-68
2022/06/05 08:25:15;;;;;;;7.73;6.97;;;;;;;22.32;66.26;101162.50;5222678;28;20021;-69
2022/06/05 08:27:48;;;;;;;11.03;7.00;;;;;;;22.34;64.54;101158.59;5204977;28;20502;-67
2022/06/05 08:30:19;;;;;;;8.32;7.53;;;;;;;22.44;64.41;101166.25;5225456;28;20307;-68
2022/06/05 08:32:51;;;;;;;9.43;7.50;;;;;;;22.54;63.73;101160.50;5224661;28;20022;-68
2022/06/05 08:35:22;;;;;;;8.30;7.10;;;;;;;22.77;63.98;101166.34;5217202;28;20033;-68
2022/06/05 08:44:11;;;;;;;8.50;7.03;;;;;;;23.09;63.88;101166.59;5230654;28;20037;-68
2022/06/05 08:46:49;;;;;;;8.60;7.63;;;;;;;;;;5225962;28;20040;-68
2022/06/05 08:49:41;;;;;;;7.97;7.18;;;;;;;23.25;61.42;101166.19;5225431;28;20027;-69
2022/06/05 08:52:38;;;;;;;8.20;7.40;;;;;;;23.14;62.54;101179.34;5227138;28;20034;-68
2022/06/05 08:55:29;;;;;;;8.70;7.45;;;;;;;23.01;62.90;101166.81;5222294;28;20026;-69
2022/06/05 08:58:09;;;;;;;8.85;6.78;;;;;;;23.20;63.10;101181.22;5222393;28;20269;-68
2022/06/05 09:00:55;;;;;;;8.32;7.40;;;;;;;23.15;62.97;101175.66;5219755;28;20068;-69
2022/06/05 09:03:37;;;;;;;8.75;7.00;;;;;;;23.21;64.57;101172.97;5230653;28;20048;-68
2022/06/05 09:06:48;;;;;;;8.50;7.70;;;;;;;23.32;63.19;101184.91;5228048;28;20075;-68
2022/06/05 09:09:26;;;;;;;8.23;7.43;;;;;;;23.10;64.16;101186.94;5224624;28;20038;-69
2022/06/05 09:12:06;;;;;;;8.75;7.63;;;;;;;22.91;62.51;101179.69;5200582;28;20034;-69
2022/06/05 09:14:46;;;;;;;9.88;8.68;;;;;;;22.77;63.36;101174.34;5195582;28;20461;-70
2022/06/05 09:17:20;;;;;;;10.65;8.05;;;;;;;22.61;65.53;101173.88;5198465;28;20034;-70
2022/06/05 09:19:54;;;;;;;8.98;7.55;;;;;;;22.73;65.87;101180.28;5201943;28;20062;-70
2022/06/05 09:22:38;;;;;;;9.30;7.47;;;;;;;22.56;64.70;101174.50;5195917;28;20046;-69
2022/06/05 09:25:27;;;;;;;8.90;8.00;;;;;;;22.61;65.74;101168.53;5201738;28;20020;-70
2022/06/05 09:28:05;;;;;;;9.57;7.88;;;;;;;22.48;65.97;101180.00;5197209;28;20046;-70
2022/06/05 09:30:45;;;;;;;8.77;7.68;;;;;;;22.59;66.84;101169.56;5181920;28;20037;-70
2022/06/05 09:33:21;;;;;;;9.05;7.18;;;;;;;22.53;66.55;101167.69;5199658;28;20437;-68
2022/06/05 09:35:56;;;;;;;8.13;7.32;;;;;;;22.43;67.42;101172.63;5189320;28;20045;-70
2022/06/05 09:38:35;;;;;;;9.65;7.28;;;;;;;22.48;67.16;101162.16;5206412;28;20019;-68
2022/06/05 09:41:12;;;;;;;8.98;7.30;;;;;;;22.66;67.13;101166.94;5200145;28;20163;-69
2022/06/05 09:43:53;;;;;;;8.25;7.45;;;;;;;22.66;67.88;101158.09;5203012;28;20445;-68
2022/06/05 09:46:40;;;;;;;9.52;7.07;;;;;;;22.72;69.27;101159.94;5196355;28;20033;-69
2022/06/05 09:49:22;;;;;;;9.57;7.20;;;;;;;22.64;67.95;101152.94;5202040;28;20048;-68
2022/06/05 09:51:53;;;;;;;8.60;7.80;;;;;;;22.49;67.83;101144.28;5198087;28;21042;-68
2022/06/05 09:54:31;;;;;;;7.93;7.10;;;;;;;22.60;68.29;101143.69;5194817;28;20040;-69
2022/06/05 10:00:28;;;;;;;8.02;7.10;;;;;;;22.62;68.50;101122.97;5197496;28;20030;-69
2022/06/05 10:03:29;;;;;;;8.15;6.95;;;;;;;22.80;69.16;101114.34;5192054;28;20385;-69
2022/06/05 10:06:28;;;;;;;9.57;7.80;;;;;;;22.59;72.06;101113.50;5203082;28;20037;-68
2022/06/05 10:08:59;;;;;;;9.10;8.02;;;;;;;22.44;73.81;101112.84;5184898;28;20049;-68
2022/06/05 10:11:47;;;;;;;8.70;7.90;;;;;;;22.51;72.80;101110.19;5224776;28;20267;-68
2022/06/05 10:14:44;;;;;;;9.93;7.88;;;;;;;22.52;75.56;101111.84;5230523;28;20029;-68
2022/06/05 10:17:25;;;;;;;10.77;8.48;;;;;;;22.55;79.22;101112.25;5232439;28;20057;-69
2022/06/05 10:20:15;;;;;;;8.45;7.68;;;;;;;22.62;77.38;101108.78;5229974;28;20022;-69
2022/06/05 10:23:15;;;;;;;9.48;8.57;;;;;;;22.65;78.90;101111.03;5211736;28;20029;-68
2022/06/05 10:25:56;;;;;;;9.82;8.80;;;;;;;22.55;83.72;101127.47;5224494;28;20096;-68
2022/06/05 10:28:31;;;;;;;10.23;8.82;;;;;;;22.36;88.51;101110.38;5229375;28;20117;-69
2022/06/05 10:31:22;;;;;;;11.13;8.77;;;;;;;22.25;85.32;101111.75;5230878;28;20088;-68
2022/06/05 10:34:15;;;;;;;9.25;8.30;;;;;;;22.40;82.73;101111.59;5231509;28;20048;-68
2022/06/05 10:36:53;;;;;;;;;;;;;;;22.88;77.59;101115.97;5226902;28;20124;-68
2022/06/05 10:40:08;;;;;;;9.15;8.23;;;;;;;22.51;83.03;101104.84;5225987;28;19917;-69
2022/06/05 10:42:55;;;;;;;9.32;8.52;;;;;;;22.22;85.01;101108.66;5219182;28;20041;-69
2022/06/05 10:45:49;;;;;;;9.55;8.65;;;;;;;22.33;85.34;101105.41;5230093;28;20045;-68
2022/06/05 10:48:38;;;;;;;9.50;8.60;;;;;;;22.11;90.54;101112.69;5214123;28;20436;-68
2022/06/05 10:51:35;;;;;;;9.63;8.73;;;;;;;22.03;86.88;101104.88;5232038;28;20037;-68
2022/06/05 10:54:14;;;;;;;9.75;8.88;;;;;;;21.95;94.03;101113.06;5225687;28;20049;-68
2022/06/05 10:56:58;;;;;;;10.10;9.15;;;;;;;21.82;93.63;101103.97;5231544;28;20152;-68
2022/06/05 10:59:51;;;;;;;10.93;9.43;;;;;;;21.93;93.42;101113.22;5226074;28;20069;-69
2022/06/05 11:02:41;;;;;;;;;;;;;;;22.31;85.89;101110.13;5207520;28;20029;-68
2022/06/05 11:05:30;;;;;;;10.48;9.57;;;;;;;21.82;96.14;101108.47;5230965;28;19917;-69
2022/06/05 11:08:23;;;;;;;10.77;9.85;;;;;;;21.59;100.00;101117.59;5228574;28;20045;-68
2022/06/05 11:14:26;;;;;;;12.75;11.45;;;;;;;21.53;100.00;101105.03;5229851;28;20296;-68
2022/06/05 11:17:15;;;;;;;14.75;11.85;;;;;;;21.27;100.00;101102.97;5227008;28;20037;-69
2022/06/05 11:20:08;;;;;;;13.40;11.93;;;;;;;21.17;100.00;101107.00;5230352;28;20032;-71
2022/06/05 11:23:09;;;;;;;13.10;11.90;;;;;;;21.23;100.00;101092.91;5228083;28;20068;-69
2022/06/05 11:25:49;;;;;;;13.23;12.02;;;;;;;20.95;100.00;101096.41;5226840;28;20087;-70
2022/06/05 11:28:39;;;;;;;13.93;12.50;;;;;;;20.86;100.00;101086.88;5231500;28;20029;-67
2022/06/05 11:31:19;;;;;;;14.70;13.05;;;;;;;20.80;100.00;101077.81;5221798;28;20139;-68
2022/06/05 11:33:57;;;;;;;13.23;12.00;;;;;;;20.78;100.00;101084.34;5231840;28;20116;-69
2022/06/05 11:36:38;;;;;;;14.27;12.63;;;;;;;20.72;100.00;101080.63;5230415;28;20391;-68
2022/06/05 11:39:33;;;;;;;14.95;13.55;;;;;;;20.84;100.00;101080.94;5231698;28;20032;-68
2022/06/05 11:42:21;;;;;;;17.00;14.85;;;;;;;20.84;100.00;101079.09;5233548;28;20021;-68
2022/06/05 11:45:04;;;;;;;15.25;13.70;;;;;;;20.60;100.00;101077.63;5234886;28;20037;-69
2022/06/05 11:47:35;;;;;;;15.45;13.93;;;;;;;20.54;100.00;101073.06;5231379;28;20035;-68
2022/06/05 11:50:26;;;;;;;17.80;15.83;;;;;;;20.65;100.00;101069.09;5231855;28;20554;-68
2022/06/05 11:53:13;;;;;;;14.18;12.98;;;;;;;20.48;100.00;101072.97;5227235;28;20060;-68
2022/06/05 11:55:53;;;;;;;15.25;13.90;;;;;;;20.45;100.00;101068.84;5232855;28;20117;-68
2022/06/05 11:58:27;;;;;;;14.27;12.90;;;;;;;20.47;100.00;101072.16;5224426;28;20056;-68
2022/06/05 12:01:11;;;;;;;13.88;12.68;;;;;;;20.47;100.00;101071.34;5230176;28;20028;-68
2022/06/05 12:04:11;;;;;;;15.43;14.00;;;;;;;20.61;100.00;101067.81;5228770;28;20033;-68
2022/06/05 12:06:49;;;;;;;15.52;14.05;;;;;;;20.39;100.00;101062.44;5218329;28;20428;-68
2022/06/05 12:09:24;;;;;;;15.27;14.00;;;;;;;20.28;100.00;101059.47;5230503;28;20017;-68
2022/06/05 12:12:04;;;;;;;14.88;13.27;;;;;;;20.29;100.00;101058.44;5230416;28;20045;-69
2022/06/05 12:14:51;;;;;;;14.52;13.27;;;;;;;20.24;100.00;101060.88;5229540;28;20029;-70
2022/06/05 12:17:42;;;;;;;16.25;14.75;;;;;;;20.42;100.00;101058.59;5226323;28;20091;-68
2022/06/05 12:20:44;;;;;;;15.63;14.32;;;;;;;20.41;100.00;101056.94;5221018;28;20021;-69
2022/06/05 12:23:34;;;;;;;16.70;14.95;;;;;;;20.38;100.00;101051.97;5228301;28;20376;-68
2022/06/05 12:26:19;;;;;;;15.95;14.65;;;;;;;20.24;100.00;101055.53;5230345;28;20357;-67
2022/06/05 12:29:16;;;;;;;16.58;15.30;;;;;;;20.30;100.00;101055.59;5229670;28;20029;-68
2022/06/05 12:31:54;;;;;;;18.20;16.42;;;;;;;20.11;100.00;101042.91;5228437;28;20059;-68
2022/06/05 12:34:29;;;;;;;21.08;19.17;;;;;;;19.93;100.00;101051.31;5229105;28;20404;-67